首页
METAR-TAF:

METAR-TAF

机场 :

成田国际机场

东京 / 成田国际机场, 日本

纬度: 35-46N, 经度: 140-23E, 海拔: 41米

当前天气观测

该预报发布于38分钟前的01:00 UTC
风速6节,风向东转东北,在东转东南之间变化
温度 23°C
湿度 73%
气压 1015 hPa
能见度10公里或以上
少量云层高于3000英尺
散云层高于6000英尺
多云层高于14000英尺
小雨

METAR: RJAA 200100Z 06006KT 350V110 9999 -RA FEW030 SCT060 BKN140 23/18 Q1015 BECMG 05006KT RMK 1CU030 3SC060 7AC140 A2999

时间: 10:38 (01:38 UTC)

预报

该预报发布于2小时和33分钟前的23:05 UTC
预报有效从20日的 00点(UTC)到 21日的 06点(UTC)
风速5节,风向北转东北
能见度10公里或以上
少量云层高于3000英尺
成为
从 20日的 12点(UTC)到 20日的 15点(UTC)
能見度: 4000
少量云层高于500英尺
多云层高于800英尺
小雨, 轻雾
短暂存在
从 20日的 15点(UTC)到 20日的 21点(UTC)
能見度: 3000
少量云层高于300英尺
多云层高于500英尺
雨, 轻雾
成为
从 20日的 21点(UTC)到 21日的 00点(UTC)
风速18节,风向北转东北
能見度: 8000
少量云层高于800英尺
多云层高于1500英尺
小雨
短暂存在
从 21日的 00点(UTC)到 21日的 06点(UTC)
风速20节,风向北转东北,有时为30节阵风

TAF: RJAA 192305Z 2000/2106 03005KT 9999 FEW030 BECMG 2012/2015 4000 -RA BR FEW005 BKN008 TEMPO 2015/2021 3000 RA BR FEW003 BKN005 BECMG 2021/2100 03018KT 8000 -RA FEW008 BKN015 TEMPO 2100/2106 03020G30KT

超过4000个机场的气象观测和天气预报(METAR&TAF报告)。

可查询的气象台以黄色和红色小点在地图上表示。

将鼠标移到小点上方,可查看气象台名称。

然后点击查看天气观测和预报。

如需切换地图:点击带黑十字的绿色按钮放大地图;点击带横线的绿色按钮缩小地图;或者点击绿色箭头查看邻近地区的地图。


METAR-TAF: